Narowal Weather



Narowal's Current Weather

Temprature 13o mist

mist

Rain: 0 %

Min Temprature13o
Max Temprature13o
Humidity87
Wind Speed1.3 m/h
Sun Rise06:13:55
Sun Set17:14:22
Current Time: 28-Oct-2020 08:11:30
Lat/Lon: 32.1, 74.88




Narowal's Geo Location



Narowal's Weather Forecast

Time Overall Temp Min Temp Max Temp Humidity Wind Speed Rain
28-Oct-2020 (Wed)
11:00:00 clear sky 21.200 21.200 29.800 51 0.92 m/h 0 %
14:00:00 clear sky 27.690 27.690 31.740 28 2.51 m/h 0 %
17:00:00 clear sky 25.280 25.280 26.120 20 1.35 m/h 0 %
20:00:00 clear sky 21.890 21.890 21.960 20 0.31 m/h 0 %
23:00:00 clear sky 19.250 19.250 19.250 25 2.99 m/h 0 %
29-Oct-2020 (Thu)
02:00:00 clear sky 17.180 17.180 17.180 29 1.87 m/h 0 %
05:00:00 clear sky 16.000 16.000 16.000 32 1.58 m/h 0 %
08:00:00 clear sky 20.720 20.720 20.720 24 2.02 m/h 0 %
11:00:00 clear sky 29.800 29.800 29.800 14 2 m/h 0 %
14:00:00 clear sky 32.800 32.800 32.800 11 1.15 m/h 0 %
17:00:00 clear sky 26.500 26.500 26.500 16 1.11 m/h 0 %
20:00:00 clear sky 23.220 23.220 23.220 20 2.09 m/h 0 %
23:00:00 clear sky 19.640 19.640 19.640 25 2.21 m/h 0 %
30-Oct-2020 (Fri)
02:00:00 clear sky 17.050 17.050 17.050 29 0.88 m/h 0 %
05:00:00 clear sky 16.380 16.380 16.380 30 1.23 m/h 0 %
08:00:00 clear sky 21.010 21.010 21.010 23 1.58 m/h 0 %
11:00:00 clear sky 30.580 30.580 30.580 13 0.8 m/h 0 %
14:00:00 clear sky 32.650 32.650 32.650 11 3.14 m/h 0 %
17:00:00 clear sky 26.990 26.990 26.990 16 2.61 m/h 0 %
20:00:00 clear sky 21.750 21.750 21.750 21 2.54 m/h 0 %
23:00:00 clear sky 18.620 18.620 18.620 25 2.39 m/h 0 %
31-Oct-2020 (Sat)
02:00:00 clear sky 16.500 16.500 16.500 29 1.54 m/h 0 %
05:00:00 clear sky 14.360 14.360 14.360 33 1.08 m/h 0 %
08:00:00 clear sky 19.340 19.340 19.340 25 0.72 m/h 0 %
11:00:00 clear sky 28.860 28.860 28.860 14 2.08 m/h 0 %
14:00:00 clear sky 32.010 32.010 32.010 10 3 m/h 0 %
17:00:00 clear sky 25.720 25.720 25.720 15 2.1 m/h 0 %
20:00:00 clear sky 20.720 20.720 20.720 20 2.63 m/h 0 %
23:00:00 clear sky 18.250 18.250 18.250 25 2 m/h 0 %
01-Nov-2020 (Sun)
02:00:00 clear sky 15.390 15.390 15.390 30 0.52 m/h 0 %
05:00:00 clear sky 14.040 14.040 14.040 33 0.61 m/h 0 %
08:00:00 clear sky 19.300 19.300 19.300 24 0.2 m/h 0 %
11:00:00 clear sky 28.660 28.660 28.660 13 1.77 m/h 0 %
14:00:00 clear sky 32.160 32.160 32.160 10 3.44 m/h 0 %
17:00:00 clear sky 25.450 25.450 25.450 14 2.02 m/h 0 %
20:00:00 clear sky 20.740 20.740 20.740 19 1.11 m/h 0 %
23:00:00 clear sky 17.580 17.580 17.580 24 1.27 m/h 0 %
02-Nov-2020 (Mon)
02:00:00 clear sky 16.180 16.180 16.180 27 0.67 m/h 0 %
05:00:00 clear sky 15.310 15.310 15.310 32 1.13 m/h 0 %
08:00:00 clear sky 19.890 19.890 19.890 25 1.08 m/h 0 %

Famous Cities (60)